createdAt,value
2022-09-22T00:04:14.863Z,8.87
2022-09-22T00:09:21.049Z,8.84
2022-09-22T00:14:26.870Z,8.80
2022-09-22T00:19:36.778Z,8.74
2022-09-22T00:24:40.193Z,8.69
2022-09-22T00:29:44.116Z,8.67
2022-09-22T00:34:47.328Z,8.65
2022-09-22T00:39:52.682Z,8.64
2022-09-22T00:44:56.097Z,8.61
2022-09-22T00:50:24.798Z,8.56
2022-09-22T00:55:47.365Z,8.53
2022-09-22T01:00:50.928Z,8.52
2022-09-22T01:05:58.081Z,8.52
2022-09-22T01:11:02.314Z,8.52
2022-09-22T01:16:08.306Z,8.51
2022-09-22T01:21:33.923Z,8.51
2022-09-22T01:26:58.120Z,8.52
2022-09-22T01:32:20.069Z,8.48
2022-09-22T01:37:39.559Z,8.47
2022-09-22T01:42:53.622Z,8.49
2022-09-22T01:48:02.667Z,8.54
2022-09-22T01:53:10.587Z,8.54
2022-09-22T01:58:22.294Z,8.53
2022-09-22T02:03:41.168Z,8.47
2022-09-22T02:09:07.651Z,8.41
2022-09-22T02:14:12.369Z,8.35
2022-09-22T02:19:28.477Z,8.31
2022-09-22T02:24:44.691Z,8.25
2022-09-22T02:29:52.574Z,8.25
2022-09-22T02:34:56.603Z,8.26
2022-09-22T02:40:07.484Z,8.25
2022-09-22T02:45:17.799Z,8.24
2022-09-22T02:50:24.573Z,8.25
2022-09-22T02:55:28.315Z,8.30
2022-09-22T03:00:32.748Z,8.38
2022-09-22T03:05:36.059Z,8.42
2022-09-22T03:10:39.169Z,8.46
2022-09-22T03:15:42.855Z,8.50
2022-09-22T03:20:46.302Z,8.56
2022-09-22T03:25:49.618Z,8.60
2022-09-22T03:30:52.998Z,8.67
2022-09-22T03:35:56.333Z,8.70
2022-09-22T03:41:01.692Z,8.69
2022-09-22T03:46:05.134Z,8.63
2022-09-22T03:51:08.519Z,8.60
2022-09-22T03:56:14.391Z,8.60
2022-09-22T04:01:17.742Z,8.60
2022-09-22T04:06:21.626Z,8.60
2022-09-22T04:11:25.144Z,8.61
2022-09-22T04:16:30.153Z,8.64
2022-09-22T04:21:33.507Z,8.66
2022-09-22T04:26:36.712Z,8.68
2022-09-22T04:31:40.636Z,8.70
2022-09-22T04:36:44.051Z,8.72
2022-09-22T04:41:47.470Z,8.76
2022-09-22T04:46:50.776Z,8.82
2022-09-22T04:51:54.187Z,8.88
2022-09-22T04:56:57.497Z,8.93
2022-09-22T05:02:00.809Z,8.94
2022-09-22T05:07:05.045Z,8.98
2022-09-22T05:12:08.455Z,9.04
2022-09-22T05:17:11.868Z,9.06
2022-09-22T05:22:15.177Z,9.13
2022-09-22T05:27:19.002Z,9.21
2022-09-22T05:32:22.312Z,9.31
2022-09-22T05:37:25.620Z,9.51
2022-09-22T05:42:29.035Z,9.63
2022-09-22T05:47:34.806Z,9.69
2022-09-22T05:52:38.422Z,9.80
2022-09-22T05:57:41.937Z,9.90
2022-09-22T06:02:45.417Z,10.03
2022-09-22T06:07:58.584Z,10.31
2022-09-22T06:13:04.164Z,10.54
2022-09-22T06:18:14.590Z,10.89
2022-09-22T06:23:18.562Z,11.32
2022-09-22T06:28:22.282Z,11.59
2022-09-22T06:33:25.596Z,11.75
2022-09-22T06:38:32.180Z,12.03
2022-09-22T06:43:38.075Z,12.21
2022-09-22T06:48:41.463Z,12.46
2022-09-22T06:53:47.552Z,12.86
2022-09-22T06:59:09.963Z,13.22
2022-09-22T07:04:15.158Z,13.52
2022-09-22T07:09:18.464Z,13.77
2022-09-22T07:14:22.698Z,14.03
2022-09-22T07:19:26.006Z,14.39
2022-09-22T07:24:29.216Z,14.64
2022-09-22T07:29:33.593Z,14.77
2022-09-22T07:34:36.758Z,14.79
2022-09-22T07:39:39.970Z,14.74
2022-09-22T07:45:01.914Z,14.75
2022-09-22T07:50:05.862Z,14.80
2022-09-22T07:55:09.764Z,14.81
2022-09-22T08:00:13.792Z,14.89
2022-09-22T08:05:17.308Z,15.06
2022-09-22T08:10:20.741Z,15.32
2022-09-22T08:15:27.142Z,15.41
2022-09-22T08:20:31.233Z,15.27
2022-09-22T08:25:35.055Z,15.00
2022-09-22T08:30:39.594Z,14.75
2022-09-22T08:35:53.660Z,14.54
2022-09-22T08:41:13.455Z,14.52
2022-09-22T08:46:16.798Z,14.65
2022-09-22T08:51:52.435Z,14.86
2022-09-22T08:57:06.396Z,14.96
2022-09-22T09:02:32.899Z,15.30
2022-09-22T09:08:02.682Z,15.61
2022-09-22T09:13:14.493Z,15.69
2022-09-22T09:18:27.741Z,15.75
2022-09-22T09:29:22.691Z,15.82
2022-09-22T09:34:29.281Z,15.82
2022-09-22T09:39:39.040Z,15.87
2022-09-22T09:44:43.814Z,16.08
2022-09-22T09:49:52.678Z,15.92
2022-09-22T09:54:56.447Z,15.57
2022-09-22T10:00:34.983Z,15.62
2022-09-22T10:05:38.396Z,15.61
2022-09-22T10:10:42.220Z,15.55
2022-09-22T10:16:00.025Z,15.69
2022-09-22T10:21:07.478Z,15.94
2022-09-22T10:26:18.467Z,15.93
2022-09-22T10:31:27.754Z,16.08
2022-09-22T10:36:33.527Z,16.62
2022-09-22T10:41:38.640Z,17.08
2022-09-22T10:46:58.131Z,16.98
2022-09-22T10:52:09.452Z,16.84
2022-09-22T10:57:44.688Z,16.63
2022-09-22T11:03:05.919Z,16.71
2022-09-22T11:08:41.077Z,16.76
2022-09-22T11:13:55.241Z,16.88
2022-09-22T11:19:14.424Z,17.06
2022-09-22T11:24:44.771Z,17.24
2022-09-22T11:30:11.049Z,17.10
2022-09-22T11:35:36.556Z,16.72
2022-09-22T11:41:18.260Z,16.31
2022-09-22T11:46:23.302Z,15.72
2022-09-22T11:51:46.488Z,15.03
2022-09-22T11:56:53.462Z,14.67
2022-09-22T12:02:00.438Z,14.64
2022-09-22T12:07:10.577Z,14.46
2022-09-22T12:12:19.718Z,14.48
2022-09-22T12:17:35.709Z,14.77
2022-09-22T12:22:57.961Z,14.97
2022-09-22T12:28:01.686Z,15.01
2022-09-22T12:33:05.509Z,14.88
2022-09-22T12:38:13.321Z,14.93
2022-09-22T12:43:20.713Z,15.09
2022-09-22T12:48:32.538Z,15.51
2022-09-22T12:53:38.055Z,15.99
2022-09-22T12:58:44.791Z,16.24
2022-09-22T13:03:53.023Z,15.87
2022-09-22T13:08:56.123Z,15.16
2022-09-22T13:13:59.643Z,14.71
2022-09-22T13:19:04.396Z,14.23
2022-09-22T13:24:24.895Z,13.49
2022-09-22T13:29:31.382Z,13.20
2022-09-22T13:34:36.842Z,13.12
2022-09-22T13:39:47.201Z,13.13
2022-09-22T13:45:04.356Z,13.26
2022-09-22T13:50:14.015Z,13.50
2022-09-22T13:55:46.817Z,13.82
2022-09-22T14:01:14.145Z,14.30
2022-09-22T14:06:22.220Z,14.95
2022-09-22T14:11:30.463Z,15.55
2022-09-22T14:16:33.717Z,15.82
2022-09-22T14:22:03.276Z,16.08
2022-09-22T14:27:08.735Z,16.16
2022-09-22T14:32:19.424Z,16.73
2022-09-22T14:37:28.057Z,17.79
2022-09-22T14:42:34.052Z,18.36
2022-09-22T14:47:41.747Z,17.55
2022-09-22T14:52:56.216Z,16.82
2022-09-22T14:58:04.099Z,16.46
2022-09-22T15:03:18.912Z,16.24
2022-09-22T15:08:28.475Z,15.90
2022-09-22T15:13:53.088Z,15.64
2022-09-22T15:18:56.606Z,15.63
2022-09-22T15:24:00.735Z,15.53
2022-09-22T15:29:04.050Z,15.44
2022-09-22T15:34:07.768Z,15.63
2022-09-22T15:39:22.961Z,15.63
2022-09-22T15:44:26.468Z,15.43
2022-09-22T15:49:33.466Z,15.29
2022-09-22T15:54:37.499Z,15.11
2022-09-22T15:59:42.346Z,15.00
2022-09-22T16:04:46.068Z,15.42
2022-09-22T16:09:49.275Z,18.14
2022-09-22T16:14:55.256Z,21.38
2022-09-22T16:19:58.869Z,23.16
2022-09-22T16:25:04.421Z,24.03
2022-09-22T16:30:08.343Z,23.55
2022-09-22T16:35:12.079Z,21.11
2022-09-22T16:40:15.451Z,18.82
2022-09-22T16:45:39.081Z,17.09
2022-09-22T16:50:43.419Z,15.72
2022-09-22T16:55:49.694Z,14.78
2022-09-22T17:00:52.854Z,13.98
2022-09-22T17:06:08.432Z,13.34
2022-09-22T17:11:14.985Z,12.85
2022-09-22T17:16:30.469Z,12.42
2022-09-22T17:21:36.648Z,12.06
2022-09-22T17:26:48.062Z,11.78
2022-09-22T17:32:00.288Z,11.53
2022-09-22T17:37:04.920Z,11.33
2022-09-22T17:42:08.127Z,11.17
2022-09-22T17:47:30.073Z,11.02
2022-09-22T17:52:33.297Z,10.90
2022-09-22T17:57:41.301Z,10.76
2022-09-22T18:02:45.389Z,10.63
2022-09-22T18:07:53.007Z,10.52
2022-09-22T18:12:57.063Z,10.39
2022-09-22T18:18:03.340Z,10.29
2022-09-22T18:23:07.880Z,10.20
2022-09-22T18:28:11.292Z,10.10
2022-09-22T18:33:14.499Z,9.99
2022-09-22T18:38:20.167Z,9.91
2022-09-22T18:43:23.373Z,9.83
2022-09-22T18:48:27.504Z,9.77
2022-09-22T18:53:30.813Z,9.69
2022-09-22T18:58:34.228Z,9.66
2022-09-22T19:03:37.433Z,9.62
2022-09-22T19:08:41.051Z,9.56
2022-09-22T19:13:44.978Z,9.49
2022-09-22T19:18:48.435Z,9.47
2022-09-22T19:23:51.601Z,9.44
2022-09-22T19:28:54.808Z,9.41
2022-09-22T19:33:58.118Z,9.35
2022-09-22T19:39:01.326Z,9.29
2022-09-22T19:44:05.764Z,9.23
2022-09-22T19:49:09.180Z,9.16
2022-09-22T19:54:12.488Z,9.08
2022-09-22T19:59:19.893Z,9.00
2022-09-22T20:04:23.819Z,8.94
2022-09-22T20:09:27.232Z,8.89
2022-09-22T20:14:32.078Z,8.82
2022-09-22T20:19:40.050Z,8.77
2022-09-22T20:24:43.322Z,8.72
2022-09-22T20:29:46.619Z,8.66
2022-09-22T20:34:51.160Z,8.60
2022-09-22T20:39:54.467Z,8.53
2022-09-22T20:44:58.599Z,8.50
2022-09-22T20:50:03.144Z,8.45
2022-09-22T20:55:07.046Z,8.38
2022-09-22T21:00:10.888Z,8.34
2022-09-22T21:05:14.406Z,8.35
2022-09-22T21:10:46.802Z,8.34
2022-09-22T21:15:58.557Z,8.31
2022-09-22T21:21:04.234Z,8.28
2022-09-22T21:26:08.504Z,8.26
2022-09-22T21:31:15.009Z,8.24
2022-09-22T21:36:20.577Z,8.20
2022-09-22T21:41:27.350Z,8.22
2022-09-22T21:46:32.048Z,8.24
2022-09-22T21:51:41.502Z,8.27
2022-09-22T21:56:45.754Z,8.26
2022-09-22T22:01:49.150Z,8.17
2022-09-22T22:06:52.501Z,7.98
2022-09-22T22:11:59.121Z,7.85
2022-09-22T22:17:02.604Z,7.89
2022-09-22T22:22:06.118Z,7.96
2022-09-22T22:27:10.946Z,7.96
2022-09-22T22:32:15.300Z,7.91
2022-09-22T22:37:18.510Z,7.84
2022-09-22T22:42:21.716Z,7.73
2022-09-22T22:47:25.949Z,7.68
2022-09-22T22:52:29.360Z,7.64
2022-09-22T22:57:32.673Z,7.61
2022-09-22T23:02:35.881Z,7.54
2022-09-22T23:07:39.091Z,7.44
2022-09-22T23:12:42.296Z,7.36
2022-09-22T23:17:48.641Z,7.31
2022-09-22T23:22:51.785Z,7.26
2022-09-22T23:27:54.790Z,7.24
2022-09-22T23:32:58.390Z,7.20
2022-09-22T23:38:01.924Z,7.15
2022-09-22T23:43:04.927Z,7.10
2022-09-22T23:48:08.032Z,7.06
2022-09-22T23:53:12.266Z,7.04
2022-09-22T23:58:15.578Z,7.02
